Main page
METAR-TAF:

METAR-TAF

Airports :

Osijek, Croatia

Osijek Airport

latitude: 45-27N, longitude: 018-48E, elevation: 88 m

Current weather observation

The report was made 28 minutes ago, at 14:00 UTC
Wind 3 kt from the East, varying between North and Southeast
Temperature 25°C
Humidity 36%
Pressure 1022 hPa
Visibility 10 km or more
no clouds below 1500 m and no cumulonimbus

METAR: LDOS 281400Z 10003KT 360V130 CAVOK 25/09 Q1022

Time: 16:28 (14:28 UTC)

Forecast

The report was made 3 hours and 3 minutes ago, at 11:25 UTC
Forecast valid from 28 at 12 UTC to 29 at 12 UTC
Wind 5 kt from the East/Southeast
Visibility 10 km or more
no clouds below 1500 m and no cumulonimbus

TAF: LDOS 281125Z 2812/2912 11005KT CAVOK TX25/2813Z TN12/2903Z

Weather observations and forecasts of more than 4000 airports (METAR and TAF reports).

The available stations are represented by yellow and red dots on the map.

Hover mouse over dot to see the name of the station.

Then click to see weather observations and forecasts.

To change the map : click on the green buttons with a black cross to zoom in, on the green button with a dash to zoom out, or on the green arrows for adjacent maps.


METAR-TAF: